Time;durP1;ratioP1;P1;durP2;ratioP2;P2;SDS_P1;SDS_P2;PMS_P1;PMS_P2;Temp;Humidity;BMP_temperature;BMP_pressure;BME280_temperature;BME280_humidity;BME280_pressure;Samples;Min_cycle;Max_cycle;Signal;HPM_P1;HPM_P2
2020/12/20 00:02:07;;;;;;;0.65;0.60;;;9.50;95.50;;;13.39;78.94;101582.41;4994902;28;97041;-74
2020/12/20 00:05:15;;;;;;;0.75;0.47;;;9.40;95.50;;;13.39;79.06;101576.22;4998751;28;98492;-75
2020/12/20 00:08:23;;;;;;;1.58;1.20;;;9.50;95.60;;;13.35;78.58;101575.22;5001365;28;96826;-75
2020/12/20 00:11:29;;;;;;;6.28;1.95;;;9.40;95.50;;;13.35;78.88;101586.00;5000334;28;97356;-75
2020/12/20 00:14:36;;;;;;;5.15;0.80;;;9.40;95.50;;;13.35;78.75;101580.59;4998181;28;97968;-74
2020/12/20 00:17:44;;;;;;;1.17;1.00;;;9.40;95.60;;;13.29;78.72;101573.72;4996619;28;96714;-74
2020/12/20 00:20:51;;;;;;;1.08;0.93;;;9.40;95.60;;;13.25;78.47;101570.03;4993608;28;96870;-74
2020/12/20 00:23:58;;;;;;;0.73;0.70;;;9.40;95.60;;;13.17;78.86;101589.56;5011822;28;96722;-74
2020/12/20 00:27:11;;;;;;;2.15;1.95;;;9.40;95.50;;;13.14;78.89;101587.47;5003586;28;97859;-74
2020/12/20 00:30:19;;;;;;;0.65;0.55;;;9.30;95.50;;;13.17;78.90;101586.84;5002512;28;97748;-74
2020/12/20 00:33:27;;;;;;;0.70;0.70;;;9.30;95.50;;;13.19;78.32;101590.06;4994408;28;97300;-74
2020/12/20 00:36:35;;;;;;;6.85;1.05;;;9.30;95.50;;;13.20;78.81;101599.72;4995217;28;97000;-74
2020/12/20 00:39:43;;;;;;;4.32;0.90;;;9.20;95.50;;;13.17;78.60;101601.13;4994235;28;97788;-74
2020/12/20 00:42:50;;;;;;;0.43;0.43;;;9.20;95.50;;;13.11;78.65;101602.31;4996052;28;97587;-74
2020/12/20 00:45:57;;;;;;;3.22;2.80;;;9.20;95.60;;;13.13;78.35;101604.69;4997842;28;96685;-75
2020/12/20 00:49:05;;;;;;;11.70;0.70;;;9.20;95.50;;;13.11;78.61;101602.31;4995014;28;96722;-74
2020/12/20 00:52:15;;;;;;;1.05;0.85;;;9.20;95.50;;;12.99;78.53;101603.91;4993178;28;96741;-74
2020/12/20 00:55:25;;;;;;;0.30;0.30;;;9.20;95.40;;;12.74;79.60;101596.22;4998165;28;97692;-74
2020/12/20 00:58:33;;;;;;;1.40;1.15;;;9.10;95.40;;;12.77;79.30;101601.81;5000226;28;96806;-74
2020/12/20 01:01:40;;;;;;;0.75;0.75;;;9.10;95.40;;;12.83;79.42;101594.44;4998345;28;96777;-74
2020/12/20 01:04:49;;;;;;;0.80;0.80;;;9.10;95.50;;;12.81;79.48;101589.38;4997205;28;97094;-73
2020/12/20 01:07:56;;;;;;;0.40;0.40;;;9.10;95.40;;;12.93;79.04;101588.94;5001089;28;98776;-74
2020/12/20 01:11:04;;;;;;;2.47;0.57;;;9.10;95.50;;;12.98;78.71;101583.47;4994084;28;96796;-73
2020/12/20 01:14:11;;;;;;;2.95;1.30;;;9.00;95.50;;;13.01;78.35;101578.28;5003970;28;96702;-74
2020/12/20 01:17:27;;;;;;;3.03;1.20;;;9.10;95.50;;;13.01;78.53;101582.88;4998412;28;98069;-74
2020/12/20 01:20:39;;;;;;;2.35;0.85;;;9.00;95.50;;;12.96;78.08;101577.59;4984472;28;96778;-74
2020/12/20 01:23:47;;;;;;;2.90;1.42;;;9.00;95.50;;;12.96;78.57;101572.22;4996954;28;96667;-74
2020/12/20 01:26:55;;;;;;;0.93;0.93;;;9.00;95.50;;;13.06;78.69;101570.13;4998283;28;96874;-74
2020/12/20 01:30:02;;;;;;;1.13;1.02;;;9.00;95.50;;;13.02;78.23;101577.19;4999368;28;96866;-74
2020/12/20 01:33:09;;;;;;;1.30;1.17;;;9.00;95.50;;;12.99;78.07;101572.38;4997444;28;97210;-74
2020/12/20 01:36:33;;;;;;;0.25;0.25;;;9.00;95.50;;;12.93;77.57;101586.25;4981441;28;96775;-73
2020/12/20 01:39:41;;;;;;;0.20;0.20;;;9.00;95.40;;;12.88;78.45;101586.28;4993948;28;96805;-74
2020/12/20 01:42:49;;;;;;;2.20;1.38;;;8.90;95.40;;;12.84;77.97;101590.66;4999723;28;96808;-73
2020/12/20 01:46:01;;;;;;;1.55;1.20;;;8.90;95.30;;;12.83;78.44;101592.56;4995270;28;96871;-73
2020/12/20 01:49:09;;;;;;;1.17;1.08;;;8.90;95.40;;;12.83;77.98;101597.94;4980673;28;97105;-73
2020/12/20 01:52:18;;;;;;;0.43;0.43;;;8.90;95.40;;;12.82;78.03;101592.84;4981187;28;96992;-73
2020/12/20 01:55:26;;;;;;;1.42;0.75;;;8.80;95.30;;;12.75;78.29;101600.50;5000123;28;96906;-74
2020/12/20 01:58:37;;;;;;;0.73;0.73;;;8.80;95.40;;;12.76;78.09;101599.41;4998383;28;97731;-74
2020/12/20 02:01:52;;;;;;;1.08;0.88;;;8.80;95.40;;;12.66;78.24;101596.91;4993413;28;97097;-73
2020/12/20 02:05:13;;;;;;;1.48;1.38;;;8.80;95.40;;;12.65;78.58;101600.69;5009096;28;96875;-73
2020/12/20 02:08:25;;;;;;;2.40;1.10;;;8.70;95.30;;;12.66;78.36;101602.28;4988577;28;98848;-73
2020/12/20 02:11:33;;;;;;;2.75;0.85;;;8.70;95.40;;;12.65;78.18;101598.00;4986075;28;98056;-74
2020/12/20 02:14:46;;;;;;;0.88;0.60;;;8.70;95.40;;;12.66;77.72;101599.59;4994834;28;96813;-73
2020/12/20 02:17:52;;;;;;;1.02;0.90;;;8.70;95.40;;;12.62;78.29;101594.00;4986224;28;96897;-73
2020/12/20 02:21:04;;;;;;;2.78;0.88;;;8.60;95.40;;;12.62;77.57;101593.22;5003122;28;96902;-74
2020/12/20 02:24:16;;;;;;;0.63;0.40;;;8.60;95.30;;;12.63;78.32;101595.59;5011559;28;96784;-73
2020/12/20 02:27:30;;;;;;;3.22;0.88;;;8.60;95.40;;;12.51;78.10;101597.13;5002983;28;96736;-73
2020/12/20 02:30:38;;;;;;;2.80;1.15;;;8.60;95.40;;;12.51;78.79;101599.81;5000287;28;96796;-73
2020/12/20 02:33:52;;;;;;;0.45;0.38;;;8.60;95.40;;;12.51;78.39;101597.94;5006233;28;98049;-73
2020/12/20 02:37:00;;;;;;;0.68;0.68;;;8.60;95.50;;;12.59;78.28;101605.34;5003551;28;97652;-73
2020/12/20 02:40:21;;;;;;;3.20;0.95;;;8.60;95.50;;;12.57;78.76;101604.84;4988198;28;96867;-73
2020/12/20 02:43:33;;;;;;;0.88;0.88;;;8.60;95.50;;;12.54;78.77;101596.56;4999258;28;96751;-73
2020/12/20 02:46:43;;;;;;;2.20;1.52;;;8.60;95.50;;;12.68;78.34;101600.09;5001897;28;96944;-75
2020/12/20 02:49:52;;;;;;;1.52;1.38;;;8.60;95.50;;;12.62;78.17;101598.59;5000223;28;96752;-73
2020/12/20 02:53:04;;;;;;;1.65;0.85;;;8.60;95.50;;;12.73;78.20;101589.25;4991227;28;96803;-75
2020/12/20 02:56:12;;;;;;;1.70;0.77;;;8.60;95.50;;;12.73;78.40;101597.31;5007886;28;97044;-75
2020/12/20 02:59:22;;;;;;;1.45;0.95;;;8.60;95.50;;;12.64;78.63;101597.19;4998955;28;97822;-74
2020/12/20 03:02:29;;;;;;;1.55;1.45;;;8.60;95.50;;;12.70;78.95;101595.22;5000748;28;97169;-74
2020/12/20 03:05:36;;;;;;;9.48;1.80;;;8.60;95.50;;;12.70;78.30;101589.84;5002406;28;97194;-74
2020/12/20 03:08:44;;;;;;;2.08;0.95;;;8.70;95.50;;;12.67;78.27;101583.16;4988725;28;97045;-74
2020/12/20 03:11:52;;;;;;;0.85;0.85;;;8.70;95.50;;;12.69;78.11;101582.88;4988854;28;96777;-75
2020/12/20 03:14:59;;;;;;;0.47;0.40;;;8.60;95.50;;;12.73;77.93;101579.28;4994071;28;96818;-75
2020/12/20 03:18:06;;;;;;;0.57;0.50;;;8.60;95.50;;;12.70;78.06;101584.47;4998963;28;97386;-74
2020/12/20 03:21:26;;;;;;;14.00;1.95;;;8.60;95.50;;;12.75;77.45;101589.75;5012707;28;97351;-75
2020/12/20 03:25:10;;;;;;;4.68;2.58;;;8.60;95.50;;;12.68;77.67;101576.69;4998345;28;97903;-74
2020/12/20 03:28:38;;;;;;;2.63;1.92;;;8.60;95.50;;;12.72;77.37;101575.00;4981275;28;97716;-74
2020/12/20 03:31:24;;;;;;;29.48;1.95;;;8.60;95.50;;;12.75;77.79;101581.69;4998823;28;97373;-74
2020/12/20 03:34:08;;;;;;;1.20;0.80;;;8.50;95.50;;;12.72;78.06;101580.38;5017689;28;96940;-74
2020/12/20 03:36:59;;;;;;;5.28;0.68;;;8.50;95.50;;;12.73;78.26;101587.34;4995030;28;97978;-74
2020/12/20 03:39:30;;;;;;;2.13;1.23;;;8.60;95.50;;;12.81;77.49;101584.00;5002806;28;96838;-74
2020/12/20 03:41:59;;;;;;;0.60;0.60;;;8.60;95.50;;;12.83;77.44;101584.50;4995380;28;96812;-74
2020/12/20 03:44:29;;;;;;;4.35;1.63;;;8.60;95.50;;;12.88;77.74;101588.97;4999515;28;97268;-74
2020/12/20 03:46:57;;;;;;;5.28;2.65;;;8.60;95.50;;;12.93;76.81;101594.31;4994988;28;98138;-74
2020/12/20 03:49:25;;;;;;;1.05;0.95;;;8.60;95.60;;;12.87;77.42;101595.44;4996594;28;96813;-74
2020/12/20 03:51:54;;;;;;;0.38;0.38;;;8.60;95.60;;;12.85;77.56;101592.25;4999467;28;96748;-74
2020/12/20 03:54:31;;;;;;;2.85;1.80;;;8.60;95.60;;;12.82;77.51;101603.63;4989749;28;96678;-74
2020/12/20 03:56:59;;;;;;;5.15;1.35;;;8.60;95.50;;;12.83;77.38;101595.25;5004191;28;97634;-74
2020/12/20 03:59:31;;;;;;;2.63;1.58;;;8.60;95.50;;;12.96;76.58;101594.50;5007728;28;97893;-74
2020/12/20 04:01:59;;;;;;;1.23;1.10;;;8.60;95.50;;;12.97;76.89;101588.03;4990160;28;96814;-74
2020/12/20 04:04:32;;;;;;;1.67;1.20;;;8.60;95.50;;;13.00;76.23;101590.13;5000436;28;96811;-74
2020/12/20 04:07:00;;;;;;;12.80;1.17;;;8.60;95.50;;;13.02;75.93;101592.53;4995537;28;99098;-73
2020/12/20 04:09:35;;;;;;;2.08;0.85;;;8.50;95.50;;;13.04;76.49;101590.34;4997927;28;96831;-73
2020/12/20 04:12:21;;;;;;;36.83;2.65;;;8.50;95.50;;;13.06;76.27;101593.53;4996078;28;97116;-74
2020/12/20 04:14:51;;;;;;;2.03;0.80;;;8.50;95.50;;;13.05;76.19;101590.03;5001907;28;96602;-74
2020/12/20 04:17:20;;;;;;;1.38;0.88;;;8.50;95.50;;;13.01;76.00;101596.31;4991887;28;98173;-73
2020/12/20 04:19:49;;;;;;;3.83;1.10;;;8.50;95.50;;;13.02;76.25;101598.69;4996866;28;96998;-73
2020/12/20 04:22:45;;;;;;;2.55;1.17;;;8.50;95.50;;;13.07;75.85;101600.50;4984033;28;96698;-73
2020/12/20 04:25:23;;;;;;;2.17;1.17;;;8.50;95.50;;;12.95;76.27;101598.28;4988317;28;97233;-73
2020/12/20 04:28:09;;;;;;;9.93;2.10;;;8.50;95.50;;;13.00;76.67;101594.72;4998204;28;97942;-73
2020/12/20 04:30:38;;;;;;;1.05;1.00;;;8.50;95.60;;;13.02;76.52;101597.91;4994558;28;97631;-74
2020/12/20 04:33:15;;;;;;;0.60;0.60;;;8.50;95.60;;;13.00;76.85;101589.34;5001729;28;97331;-73
2020/12/20 04:35:47;;;;;;;4.88;1.40;;;8.50;95.60;;;13.02;76.81;101587.16;5001113;28;97185;-73
2020/12/20 04:38:16;;;;;;;0.80;0.77;;;8.50;95.60;;;13.01;76.76;101580.97;5000759;28;96843;-74
2020/12/20 04:40:46;;;;;;;1.20;1.10;;;8.50;95.60;;;13.04;77.35;101593.03;4997554;28;98110;-74
2020/12/20 04:43:14;;;;;;;2.42;1.63;;;8.60;95.60;;;13.09;76.39;101593.75;5001516;28;96826;-73
2020/12/20 04:45:49;;;;;;;5.88;1.75;;;8.60;95.60;;;13.13;76.69;101592.06;4996906;28;98430;-74
2020/12/20 04:48:36;;;;;;;;;;;8.60;95.60;;;13.13;77.01;101592.06;4998745;28;97765;-73
2020/12/20 04:51:07;;;;;;;3.65;1.85;;;8.60;95.60;;;13.16;76.90;101596.03;5008831;28;96955;-73
2020/12/20 04:53:35;;;;;;;5.60;0.93;;;8.60;95.60;;;13.20;76.86;101597.84;4995942;28;96741;-73
2020/12/20 04:56:09;;;;;;;1.75;1.00;;;8.70;95.70;;;13.20;77.04;101605.09;5003837;28;96753;-73
2020/12/20 04:58:49;;;;;;;0.68;0.68;;;8.70;95.60;;;13.22;76.90;101602.94;4997135;28;98078;-73
2020/12/20 05:01:19;;;;;;;1.58;1.10;;;8.70;95.60;;;13.17;76.86;101600.31;4979981;28;96828;-73
2020/12/20 05:03:49;;;;;;;6.00;1.20;;;8.70;95.60;;;13.14;77.08;101606.28;4996763;28;96756;-73
2020/12/20 05:06:19;;;;;;;1.35;1.25;;;8.70;95.60;;;13.12;76.92;101601.22;4987070;28;96974;-73
2020/12/20 05:08:59;;;;;;;8.40;1.13;;;8.70;95.60;;;12.95;77.26;101595.59;4987895;28;97190;-73
2020/12/20 05:11:39;;;;;;;;;;;8.70;95.60;;;12.94;77.88;101598.59;5002813;28;97662;-73
2020/12/20 05:14:11;;;;;;;0.57;0.52;;;8.70;95.60;;;12.92;77.34;101595.41;5001996;28;96745;-73
2020/12/20 05:16:55;;;;;;;9.45;2.40;;;8.70;95.60;;;12.96;77.68;101597.19;4999770;28;97946;-73
2020/12/20 05:19:32;;;;;;;2.50;1.52;;;8.70;95.60;;;12.92;77.83;101598.88;4994459;28;98414;-74
2020/12/20 05:22:15;;;;;;;8.38;1.55;;;8.70;95.60;;;12.92;77.51;101596.19;5002049;28;97017;-74
2020/12/20 05:24:50;;;;;;;1.58;0.65;;;8.70;95.60;;;12.90;77.06;101597.53;4999701;28;97349;-74
2020/12/20 05:27:23;;;;;;;5.30;2.00;;;8.70;95.60;;;12.88;77.73;101600.53;5000516;28;96818;-74
2020/12/20 05:29:53;;;;;;;6.37;2.10;;;8.70;95.60;;;12.80;77.75;101605.78;4998047;28;98540;-74
2020/12/20 05:32:33;;;;;;;5.93;1.60;;;8.60;95.60;;;12.84;77.74;101596.84;4994379;28;97619;-74
2020/12/20 05:35:08;;;;;;;;;;;8.60;95.60;;;12.89;77.35;101601.34;4993555;28;96710;-74
2020/12/20 05:37:37;;;;;;;1.85;0.65;;;8.60;95.60;;;12.91;77.36;101604.53;4999052;28;97482;-74
2020/12/20 05:40:30;;;;;;;9.60;2.55;;;8.60;95.60;;;12.93;77.03;101605.09;4993643;28;99776;-74
2020/12/20 05:43:04;;;;;;;4.10;2.35;;;8.60;95.60;;;12.87;77.52;101601.63;4996134;28;97829;-74
2020/12/20 05:45:37;;;;;;;1.90;1.80;;;8.60;95.60;;;12.88;77.63;101605.13;5002863;28;96741;-74
2020/12/20 05:48:22;;;;;;;1.77;1.17;;;8.70;95.60;;;12.77;77.83;101598.31;4995674;28;96886;-74
2020/12/20 05:50:57;;;;;;;4.97;1.48;;;8.60;95.60;;;12.82;77.91;101592.84;4996062;28;98129;-74
2020/12/20 05:53:27;;;;;;;1.77;1.30;;;8.60;95.60;;;12.81;77.77;101596.63;4993268;28;97709;-74
2020/12/20 05:55:57;;;;;;;12.77;2.83;;;8.60;95.60;;;12.75;78.00;101609.34;4986791;28;96788;-74
2020/12/20 05:58:29;;;;;;;12.77;1.95;;;8.60;95.60;;;12.77;77.98;101607.19;4993839;28;97069;-74
2020/12/20 06:00:59;;;;;;;3.63;2.60;;;8.60;95.60;;;12.80;77.99;101605.78;5016305;27;97927;-74
2020/12/20 06:03:32;;;;;;;6.22;1.50;;;8.60;95.70;;;12.86;77.85;101601.91;4998951;28;97387;-74
2020/12/20 06:06:03;;;;;;;1.42;0.75;;;8.60;95.70;;;12.88;78.16;101603.25;5007120;28;97442;-74
2020/12/20 06:08:37;;;;;;;6.18;1.27;;;8.60;95.60;;;12.84;78.13;101604.94;5000759;28;96655;-74
2020/12/20 06:11:05;;;;;;;5.93;1.35;;;8.60;95.60;;;12.80;78.15;101612.00;4997857;28;97913;-74
2020/12/20 06:13:37;;;;;;;6.45;1.83;;;8.70;95.70;;;12.81;77.78;101610.91;5001618;28;97603;-74
2020/12/20 06:16:09;;;;;;;3.15;2.30;;;8.70;95.90;;;12.77;78.45;101606.38;4999890;28;96770;-74
2020/12/20 06:18:50;;;;;;;0.82;0.80;;;8.70;95.60;;;12.82;78.14;101615.19;5007861;28;96833;-75
2020/12/20 06:21:26;;;;;;;4.00;0.88;;;8.70;95.70;;;12.71;78.24;101624.50;5000894;28;97886;-74
2020/12/20 06:23:57;;;;;;;0.90;0.90;;;8.70;95.70;;;12.76;78.41;101618.25;4998402;28;98849;-74
2020/12/20 06:26:33;;;;;;;4.85;2.72;;;8.70;95.70;;;12.74;78.08;101617.75;4996702;28;96779;-74
2020/12/20 06:29:04;;;;;;;1.63;1.52;;;8.60;95.60;;;12.76;78.52;101621.75;4991531;28;97021;-74
2020/12/20 06:31:42;;;;;;;4.10;0.68;;;8.70;95.70;;;12.77;78.33;101622.53;4998300;28;96880;-74
2020/12/20 06:34:17;;;;;;;1.58;1.48;;;8.70;95.70;;;12.76;78.19;101631.69;5000602;28;97412;-74
2020/12/20 06:36:46;;;;;;;0.82;0.65;;;8.70;95.70;;;12.81;78.46;101623.53;5007977;28;97221;-74
2020/12/20 06:39:16;;;;;;;4.57;2.25;;;8.70;95.70;;;12.90;78.38;101632.50;5008669;28;96679;-75
2020/12/20 06:41:52;;;;;;;3.58;1.77;;;8.70;95.70;;;12.88;77.98;101626.63;5008107;28;97973;-75
2020/12/20 06:44:20;;;;;;;2.13;1.55;;;8.70;95.70;;;12.87;78.04;101627.72;5008587;28;97122;-75
2020/12/20 06:46:49;;;;;;;2.25;1.95;;;8.70;95.70;;;12.85;78.24;101627.22;4998396;27;96802;-74
2020/12/20 06:49:39;;;;;;;1.58;1.48;;;8.70;95.70;;;12.93;78.18;101634.66;4998571;28;96903;-74
2020/12/20 06:52:27;;;;;;;1.77;1.15;;;8.70;95.70;;;13.07;77.92;101632.78;5000458;28;97336;-75
2020/12/20 06:55:10;;;;;;;13.82;2.67;;;8.70;95.70;;;13.03;77.71;101635.25;4999703;28;97033;-74
2020/12/20 06:58:13;;;;;;;11.70;2.42;;;8.80;95.80;;;12.97;78.21;101636.47;4995860;28;96707;-75
2020/12/20 07:00:45;;;;;;;0.73;0.73;;;8.80;95.80;;;12.92;78.38;101631.16;5000207;28;96617;-74
2020/12/20 07:03:38;;;;;;;1.73;1.63;;;8.90;95.80;;;12.83;78.93;101632.09;4999496;28;96856;-74
2020/12/20 07:06:16;;;;;;;1.50;0.98;;;8.80;95.70;;;12.85;78.90;101636.09;4988101;28;96866;-74
2020/12/20 07:09:07;;;;;;;1.95;1.25;;;8.80;95.70;;;12.92;78.66;101630.38;5001800;28;96833;-74
2020/12/20 07:11:47;;;;;;;6.63;2.25;;;8.90;95.70;;;12.91;78.70;101639.50;5000773;28;96704;-74
2020/12/20 07:14:22;;;;;;;3.38;2.17;;;8.90;95.70;;;12.80;78.91;101643.44;4986672;28;97072;-74
2020/12/20 07:16:51;;;;;;;1.38;1.27;;;8.90;95.70;;;12.75;79.24;101641.63;4998234;28;97416;-74
2020/12/20 07:19:24;;;;;;;3.33;1.60;;;8.90;95.70;;;12.78;78.97;101633.00;5004638;28;97383;-74
2020/12/20 07:22:02;;;;;;;3.10;1.65;;;8.90;95.70;;;12.81;79.01;101632.41;4998684;28;96964;-74
2020/12/20 07:24:34;;;;;;;2.53;1.75;;;8.90;95.70;;;12.78;79.13;101638.38;5003522;28;97866;-74
2020/12/20 07:27:06;;;;;;;1.67;0.98;;;8.90;95.70;;;12.77;79.06;101639.47;4999718;28;97751;-74
2020/12/20 07:29:38;;;;;;;4.88;1.80;;;8.90;95.70;;;12.80;78.93;101640.75;4999733;28;96898;-74
2020/12/20 07:32:06;;;;;;;2.17;1.33;;;8.90;95.70;;;12.83;78.76;101643.66;4995963;28;97002;-74
2020/12/20 07:34:34;;;;;;;3.95;1.60;;;8.90;95.70;;;12.80;78.57;101648.81;4996439;28;96890;-74
2020/12/20 07:37:04;;;;;;;5.40;1.90;;;8.80;95.70;;;12.82;78.87;101657.41;4999494;28;96636;-74
2020/12/20 07:39:32;;;;;;;1.38;1.08;;;8.80;95.70;;;12.89;78.33;101655.13;4988674;28;96824;-74
2020/12/20 07:42:03;;;;;;;2.10;1.42;;;8.90;95.70;;;12.83;78.48;101654.44;5000749;28;96789;-74
2020/12/20 07:44:35;;;;;;;1.35;1.25;;;8.90;95.70;;;12.91;77.86;101661.81;4997225;28;96867;-74
2020/12/20 07:47:11;;;;;;;12.15;2.58;;;8.80;95.70;;;12.95;77.90;101668.22;4989393;28;97886;-74
2020/12/20 07:49:39;;;;;;;3.03;1.58;;;8.80;95.60;;;12.92;77.97;101666.13;4996907;28;97324;-74
2020/12/20 07:52:10;;;;;;;1.85;1.75;;;8.80;95.60;;;13.02;77.08;101662.47;4989594;28;96966;-75
2020/12/20 07:54:38;;;;;;;1.40;1.15;;;8.80;95.60;;;12.99;77.59;101665.75;4996313;28;96972;-75
2020/12/20 07:57:07;;;;;;;14.05;2.20;;;8.70;95.60;;;12.95;77.70;101672.84;4999494;28;96727;-75
2020/12/20 07:59:35;;;;;;;12.10;2.17;;;8.80;95.60;;;12.93;77.53;101666.94;5001479;28;96774;-75
2020/12/20 08:02:04;;;;;;;2.95;1.67;;;8.70;95.60;;;13.01;77.54;101663.56;4983217;28;96894;-75
2020/12/20 08:04:32;;;;;;;6.72;1.15;;;8.80;95.60;;;12.98;78.14;101670.34;5007567;28;96913;-75
2020/12/20 08:07:00;;;;;;;1.20;1.15;;;8.80;95.60;;;12.97;78.25;101678.72;4996840;28;97815;-75
2020/12/20 08:09:31;;;;;;;2.10;0.88;;;8.80;95.70;;;13.04;77.92;101679.13;5000995;28;96908;-75
2020/12/20 08:11:59;;;;;;;0.98;0.93;;;8.80;95.70;;;13.11;77.68;101674.97;4997654;28;97509;-75
2020/12/20 08:14:30;;;;;;;1.13;0.95;;;8.80;95.60;;;13.07;77.92;101683.91;4994834;28;96710;-74
2020/12/20 08:16:58;;;;;;;2.85;1.23;;;8.90;95.70;;;13.16;77.88;101684.81;4998946;28;96773;-74
2020/12/20 08:19:29;;;;;;;1.50;1.40;;;8.90;95.60;;;13.26;77.33;101679.28;4996523;28;96840;-74
2020/12/20 08:22:05;;;;;;;1.10;1.02;;;8.90;95.60;;;13.34;77.22;101679.38;4994802;28;96758;-74
2020/12/20 08:24:36;;;;;;;2.03;0.88;;;9.00;95.70;;;13.40;77.13;101675.53;4996380;28;97970;-74
2020/12/20 08:27:17;;;;;;;1.45;0.70;;;9.00;95.60;;;13.51;77.01;101681.50;4996211;28;97435;-73
2020/12/20 08:29:49;;;;;;;4.35;2.63;;;9.10;95.60;;;13.52;76.91;101689.28;4996779;28;96710;-73
2020/12/20 08:32:20;;;;;;;3.33;1.77;;;9.10;95.60;;;13.56;76.74;101692.19;4990327;28;96991;-74
2020/12/20 08:34:49;;;;;;;1.08;0.98;;;9.10;95.50;;;13.47;77.08;101697.47;4992886;28;97033;-73
2020/12/20 08:37:21;;;;;;;1.17;1.08;;;9.10;95.50;;;13.58;77.50;101695.38;5002020;28;96805;-73
2020/12/20 08:39:50;;;;;;;1.10;1.02;;;9.20;95.50;;;13.59;77.65;101697.78;5004281;28;96639;-74
2020/12/20 08:42:19;;;;;;;0.70;0.68;;;9.20;95.50;;;13.68;77.18;101700.56;5003107;28;96904;-74
2020/12/20 08:44:49;;;;;;;2.50;1.55;;;9.30;95.50;;;13.78;76.99;101697.69;4996155;28;98231;-74
2020/12/20 08:47:19;;;;;;;3.13;2.13;;;9.30;95.50;;;13.79;77.03;101701.97;4996272;28;96792;-74
2020/12/20 08:49:56;;;;;;;3.42;1.65;;;9.40;95.50;;;13.76;77.53;101698.00;5002371;28;96845;-75
2020/12/20 08:52:27;;;;;;;1.95;1.67;;;9.40;95.50;;;13.84;77.54;101697.28;4999479;28;96660;-73
2020/12/20 08:54:58;;;;;;;1.52;1.40;;;9.50;95.50;;;13.91;77.56;101696.91;4999915;28;96719;-74
2020/12/20 08:57:27;;;;;;;1.10;1.00;;;9.50;95.50;;;14.03;77.00;101701.47;4993591;28;97722;-75
2020/12/20 09:00:07;;;;;;;1.20;1.00;;;9.60;95.40;;;14.12;76.90;101699.69;4996479;28;96800;-74
2020/12/20 09:02:34;;;;;;;1.25;0.95;;;9.70;95.50;;;14.26;76.78;101705.06;4992586;28;96876;-74
2020/12/20 09:05:09;;;;;;;15.27;2.15;;;9.80;95.40;;;14.35;76.85;101701.34;4995776;28;96812;-73
2020/12/20 09:07:40;;;;;;;24.48;2.03;;;9.80;95.40;;;14.36;76.64;101712.94;4996531;28;97333;-74
2020/12/20 09:10:13;;;;;;;4.05;1.65;;;9.90;95.40;;;14.39;76.67;101709.63;4991811;28;97144;-74
2020/12/20 09:12:49;;;;;;;4.22;2.45;;;10.00;95.30;;;14.45;76.85;101713.81;4992675;28;97398;-75
2020/12/20 09:15:19;;;;;;;23.98;1.48;;;10.10;95.30;;;14.52;76.61;101719.59;4990769;28;96765;-75
2020/12/20 09:17:50;;;;;;;7.15;2.15;;;10.10;95.30;;;14.45;77.34;101720.03;4993353;28;96866;-75
2020/12/20 09:20:22;;;;;;;16.33;1.48;;;10.20;95.30;;;14.48;76.96;101722.09;4989592;28;97232;-75
2020/12/20 09:22:53;;;;;;;1.48;1.00;;;10.20;95.20;;;14.59;76.62;101714.59;4993467;28;96903;-74
2020/12/20 09:25:39;;;;;;;1.33;1.00;;;10.20;95.20;;;14.70;77.15;101724.81;4995191;28;97930;-74
2020/12/20 09:28:10;;;;;;;6.65;1.77;;;10.30;95.30;;;14.85;76.23;101729.88;4993236;28;97665;-74
2020/12/20 09:30:44;;;;;;;0.68;0.68;;;10.40;95.20;;;15.06;76.22;101731.00;4994717;28;97483;-74
2020/12/20 09:33:23;;;;;;;4.45;1.38;;;10.50;95.20;;;15.16;76.35;101729.94;4997961;28;98042;-74
2020/12/20 09:35:58;;;;;;;1.52;1.42;;;10.60;95.10;;;15.40;75.71;101733.94;4979479;28;98106;-75
2020/12/20 09:38:30;;;;;;;2.38;0.98;;;10.70;95.10;;;15.49;74.90;101731.31;4994291;28;96713;-74
2020/12/20 09:41:04;;;;;;;1.33;0.67;;;10.80;95.00;;;15.36;75.85;101724.88;4995960;28;96848;-75
2020/12/20 09:43:32;;;;;;;25.15;2.65;;;10.90;95.00;;;15.48;75.86;101738.59;4993756;28;96786;-74
2020/12/20 09:46:03;;;;;;;1.08;0.85;;;10.90;94.90;;;15.61;75.53;101729.59;4992467;28;98757;-74
2020/12/20 09:48:32;;;;;;;2.45;1.38;;;11.00;94.80;;;15.68;74.71;101735.38;4996108;28;96898;-75
2020/12/20 09:51:00;;;;;;;0.98;0.75;;;11.10;94.80;;;15.74;74.56;101734.91;4993143;28;96765;-74
2020/12/20 09:53:30;;;;;;;4.35;2.03;;;11.10;94.70;;;15.76;75.25;101738.13;4995967;28;96833;-74
2020/12/20 09:55:59;;;;;;;10.68;1.63;;;11.20;94.70;;;15.79;74.91;101745.59;4991952;28;96901;-74
2020/12/20 09:58:32;;;;;;;0.85;0.85;;;11.20;94.60;;;15.83;75.06;101748.47;4996282;28;97658;-74
2020/12/20 10:00:59;;;;;;;0.75;0.75;;;11.30;94.60;;;15.82;75.36;101760.38;4993916;28;96722;-74
2020/12/20 10:03:31;;;;;;;0.50;0.50;;;11.30;94.60;;;15.79;75.04;101755.59;4989891;28;96904;-73
2020/12/20 10:06:03;;;;;;;1.15;0.55;;;11.30;94.50;;;15.75;75.99;101743.81;4991968;28;96912;-74
2020/12/20 10:08:32;;;;;;;0.70;0.63;;;11.30;94.50;;;15.72;74.97;101752.56;4995242;28;97680;-75
2020/12/20 10:11:03;;;;;;;1.50;0.85;;;11.30;94.50;;;15.64;76.00;101753.31;4983865;28;96758;-75
2020/12/20 10:13:32;;;;;;;5.60;1.13;;;11.30;94.50;;;15.63;75.48;101748.22;4994008;28;96938;-75
2020/12/20 10:16:00;;;;;;;1.52;0.90;;;11.30;94.50;;;15.80;75.37;101749.91;4993302;28;98407;-75
2020/12/20 10:18:39;;;;;;;4.18;1.75;;;11.30;94.60;;;15.90;75.44;101740.69;4998717;28;97701;-74
2020/12/20 10:21:08;;;;;;;2.13;1.33;;;11.30;94.50;;;15.78;75.56;101746.72;4996736;28;96739;-75
2020/12/20 10:23:36;;;;;;;3.95;1.30;;;11.30;94.60;;;15.73;75.92;101743.34;4996975;28;98278;-75
2020/12/20 10:26:04;;;;;;;3.45;1.17;;;11.40;94.60;;;15.81;76.20;101737.97;4994340;28;97939;-75
2020/12/20 10:28:32;;;;;;;10.32;1.75;;;11.40;94.60;;;15.97;74.92;101736.44;4993252;28;96920;-75
2020/12/20 10:31:04;;;;;;;0.85;0.85;;;11.40;94.60;;;16.02;74.99;101743.59;4994650;28;97211;-75
2020/12/20 10:33:32;;;;;;;0.63;0.63;;;11.50;94.60;;;15.93;74.80;101732.75;4992987;28;96981;-74
2020/12/20 10:36:00;;;;;;;2.95;1.52;;;11.40;94.50;;;15.88;75.83;101737.50;4996910;27;96899;-74
2020/12/20 10:38:31;;;;;;;4.13;2.25;;;11.40;94.40;;;15.83;76.24;101740.34;4998468;28;97857;-74
2020/12/20 10:40:59;;;;;;;1.33;1.15;;;11.40;94.50;;;15.94;76.02;101737.06;4995173;28;97141;-74
2020/12/20 10:43:31;;;;;;;8.48;0.60;;;11.50;94.50;;;15.87;75.63;101741.31;4993813;28;96872;-74
2020/12/20 10:45:59;;;;;;;13.63;2.20;;;11.40;94.50;;;15.83;75.95;101730.34;4991175;28;97390;-74
2020/12/20 10:48:30;;;;;;;2.47;1.55;;;11.50;94.50;;;15.89;76.22;101731.00;4999479;28;97919;-76
2020/12/20 10:50:58;;;;;;;4.80;0.85;;;11.40;94.50;;;15.96;75.75;101734.06;4992319;28;97529;-74
2020/12/20 10:53:26;;;;;;;2.40;1.13;;;11.50;94.60;;;15.95;75.55;101727.06;4990660;28;97105;-73
2020/12/20 10:55:53;;;;;;;11.25;2.50;;;11.50;94.50;;;15.95;76.17;101722.44;4994599;28;96749;-74
2020/12/20 10:58:21;;;;;;;0.73;0.73;;;11.50;94.50;;;16.06;74.91;101714.84;4994952;28;97271;-73
2020/12/20 11:00:49;;;;;;;6.13;1.00;;;11.50;94.50;;;16.12;74.93;101722.50;4992118;28;97156;-74
2020/12/20 11:03:17;;;;;;;4.82;1.23;;;11.50;94.50;;;16.07;74.60;101721.84;4993026;28;96845;-74
2020/12/20 11:05:44;;;;;;;20.95;1.25;;;11.60;94.50;;;16.07;75.07;101714.53;4994387;28;96946;-75
2020/12/20 11:08:13;;;;;;;1.02;0.70;;;11.50;94.50;;;16.06;75.38;101714.84;4990598;28;98757;-75
2020/12/20 11:10:40;;;;;;;0.75;0.75;;;11.50;94.40;;;16.02;75.56;101711.16;4989846;28;98526;-75
2020/12/20 11:13:08;;;;;;;3.40;1.90;;;11.50;94.40;;;15.90;76.16;101711.75;4996493;28;96768;-74
2020/12/20 11:15:37;;;;;;;0.52;0.52;;;11.50;94.50;;;15.86;75.46;101710.00;4991580;28;97372;-75
2020/12/20 11:18:07;;;;;;;1.67;0.88;;;11.50;94.50;;;15.81;76.48;101710.94;4990325;28;97762;-74
2020/12/20 11:20:36;;;;;;;3.15;0.93;;;11.50;94.50;;;15.76;75.95;101708.38;5008565;28;97224;-74
2020/12/20 11:23:05;;;;;;;2.00;1.65;;;11.50;94.50;;;15.77;76.36;101709.97;4991960;28;96901;-74